createdAt,value
2019-05-22T00:01:39.308Z,79.88
2019-05-22T00:04:13.428Z,80.31
2019-05-22T00:06:43.058Z,80.24
2019-05-22T00:09:18.756Z,80.18
2019-05-22T00:11:48.264Z,80.14
2019-05-22T00:14:15.572Z,80.06
2019-05-22T00:16:46.265Z,79.65
2019-05-22T00:19:14.422Z,79.94
2019-05-22T00:21:41.713Z,80.18
2019-05-22T00:24:10.866Z,80.15
2019-05-22T00:26:39.843Z,80.41
2019-05-22T00:29:07.268Z,80.34
2019-05-22T00:31:34.542Z,80.28
2019-05-22T00:34:02.899Z,80.22
2019-05-22T00:36:31.914Z,80.28
2019-05-22T00:38:59.137Z,80.03
2019-05-22T00:41:28.123Z,80.32
2019-05-22T00:43:56.154Z,80.03
2019-05-22T00:46:24.507Z,80.19
2019-05-22T00:48:53.728Z,79.76
2019-05-22T00:51:36.908Z,79.14
2019-05-22T00:54:14.133Z,78.46
2019-05-22T00:56:50.906Z,78.86
2019-05-22T00:59:24.360Z,79.17
2019-05-22T01:01:52.786Z,78.85
2019-05-22T01:04:24.959Z,79.08
2019-05-22T01:06:53.983Z,78.14
2019-05-22T01:09:31.041Z,78.75
2019-05-22T01:11:59.898Z,78.59
2019-05-22T01:14:42.058Z,79.05
2019-05-22T01:16:56.421Z,79.05
2019-05-22T01:19:24.159Z,78.96
2019-05-22T01:21:51.712Z,79.13
2019-05-22T01:24:18.872Z,79.44
2019-05-22T01:26:49.371Z,79.17
2019-05-22T01:29:18.104Z,79.56
2019-05-22T01:31:50.073Z,79.46
2019-05-22T01:34:23.442Z,79.16
2019-05-22T01:36:54.759Z,79.18
2019-05-22T01:39:45.559Z,78.91
2019-05-22T01:42:19.426Z,77.76
2019-05-22T01:45:01.822Z,77.03
2019-05-22T01:47:33.045Z,75.63
2019-05-22T01:50:00.606Z,75.44
2019-05-22T01:52:27.838Z,75.68
2019-05-22T01:54:56.816Z,76.51
2019-05-22T01:57:25.802Z,76.59
2019-05-22T01:59:53.419Z,76.12
2019-05-22T02:02:23.451Z,76.29
2019-05-22T02:04:52.551Z,76.83
2019-05-22T02:07:21.003Z,75.92
2019-05-22T02:09:51.369Z,77.08
2019-05-22T02:12:31.241Z,77.07
2019-05-22T02:14:59.435Z,76.30
2019-05-22T02:17:30.982Z,75.27
2019-05-22T02:19:59.146Z,74.51
2019-05-22T02:22:26.433Z,74.21
2019-05-22T02:24:54.174Z,73.86
2019-05-22T02:27:23.409Z,73.56
2019-05-22T02:29:54.239Z,74.04
2019-05-22T02:32:23.172Z,74.24
2019-05-22T02:34:51.204Z,74.12
2019-05-22T02:37:19.330Z,73.54
2019-05-22T02:39:46.938Z,73.47
2019-05-22T02:42:20.056Z,73.55
2019-05-22T02:44:48.174Z,75.59
2019-05-22T02:47:20.742Z,76.15
2019-05-22T02:49:48.092Z,76.12
2019-05-22T02:52:15.891Z,76.69
2019-05-22T02:54:43.526Z,77.36
2019-05-22T02:57:12.328Z,77.38
2019-05-22T02:59:39.661Z,77.11
2019-05-22T03:02:06.907Z,77.21
2019-05-22T03:05:10.211Z,76.95
2019-05-22T03:07:39.604Z,76.96
2019-05-22T03:10:15.299Z,75.87
2019-05-22T03:12:44.522Z,74.98
2019-05-22T03:15:15.436Z,72.76
2019-05-22T03:17:44.281Z,71.62
2019-05-22T03:20:15.573Z,70.40
2019-05-22T03:22:58.174Z,70.04
2019-05-22T03:25:26.469Z,69.67
2019-05-22T03:27:53.887Z,69.19
2019-05-22T03:30:26.108Z,68.69
2019-05-22T03:32:55.680Z,68.57
2019-05-22T03:35:25.555Z,68.27
2019-05-22T03:37:53.710Z,68.08
2019-05-22T03:40:22.516Z,67.78
2019-05-22T03:42:53.192Z,67.72
2019-05-22T03:45:22.912Z,67.50
2019-05-22T03:47:51.116Z,67.24
2019-05-22T03:50:19.320Z,67.13
2019-05-22T03:52:46.506Z,66.62
2019-05-22T03:55:15.618Z,66.51
2019-05-22T03:57:43.959Z,67.07
2019-05-22T04:00:15.073Z,68.20
2019-05-22T04:02:43.581Z,70.48
2019-05-22T04:05:12.366Z,71.88
2019-05-22T04:07:40.387Z,73.55
2019-05-22T04:10:09.827Z,74.24
2019-05-22T04:12:37.211Z,75.64
2019-05-22T04:15:07.039Z,76.85
2019-05-22T04:17:35.644Z,78.39
2019-05-22T04:20:04.043Z,79.34
2019-05-22T04:22:31.411Z,80.09
2019-05-22T04:24:59.049Z,80.31
2019-05-22T04:27:26.051Z,80.46
2019-05-22T04:29:53.266Z,81.19
2019-05-22T04:32:28.856Z,81.12
2019-05-22T04:34:56.464Z,80.78
2019-05-22T04:37:24.280Z,80.92
2019-05-22T04:39:55.822Z,81.90
2019-05-22T04:42:24.131Z,82.25
2019-05-22T04:45:17.950Z,82.38
2019-05-22T04:47:56.895Z,82.41
2019-05-22T04:50:24.578Z,82.52
2019-05-22T04:52:52.525Z,82.08
2019-05-22T04:55:20.246Z,82.17
2019-05-22T04:57:48.879Z,82.31
2019-05-22T05:00:17.927Z,82.77
2019-05-22T05:02:45.065Z,83.09
2019-05-22T05:05:12.823Z,83.10
2019-05-22T05:07:40.926Z,83.18
2019-05-22T05:10:08.510Z,83.30
2019-05-22T05:12:35.776Z,82.92
2019-05-22T05:15:04.546Z,83.14
2019-05-22T05:17:31.703Z,83.14
2019-05-22T05:19:58.817Z,82.89
2019-05-22T05:22:40.559Z,83.28
2019-05-22T05:25:09.076Z,83.22
2019-05-22T05:27:36.095Z,82.82
2019-05-22T05:30:03.307Z,82.91
2019-05-22T05:32:31.116Z,82.61
2019-05-22T05:35:04.782Z,82.34
2019-05-22T05:37:31.970Z,82.15
2019-05-22T05:40:27.133Z,81.89
2019-05-22T05:42:54.220Z,80.85
2019-05-22T05:45:21.767Z,81.58
2019-05-22T05:47:49.594Z,82.04
2019-05-22T05:50:19.540Z,82.05
2019-05-22T05:52:48.639Z,81.49
2019-05-22T05:55:16.974Z,81.75
2019-05-22T05:58:22.868Z,80.49
2019-05-22T06:00:54.191Z,81.20
2019-05-22T06:03:33.300Z,80.65
2019-05-22T06:06:04.947Z,79.67
2019-05-22T06:08:33.042Z,79.36
2019-05-22T06:11:44.629Z,79.03
2019-05-22T06:14:23.371Z,78.92
2019-05-22T06:17:37.759Z,79.24
2019-05-22T06:20:11.690Z,79.44
2019-05-22T06:22:41.611Z,78.67
2019-05-22T06:25:09.811Z,78.71
2019-05-22T06:27:52.258Z,78.17
2019-05-22T06:30:40.633Z,78.94
2019-05-22T06:33:43.486Z,77.87
2019-05-22T06:36:18.578Z,75.36
2019-05-22T06:38:52.636Z,74.72
2019-05-22T06:41:23.780Z,75.01
2019-05-22T06:44:35.272Z,73.67
2019-05-22T06:47:04.452Z,72.46
2019-05-22T06:49:52.650Z,74.58
2019-05-22T06:52:20.242Z,73.46
2019-05-22T06:54:48.682Z,72.47
2019-05-22T06:57:19.649Z,72.55
2019-05-22T06:59:49.246Z,70.43
2019-05-22T07:02:18.711Z,71.67
2019-05-22T07:04:48.324Z,71.65
2019-05-22T07:07:16.645Z,69.99
2019-05-22T07:09:44.902Z,68.51
2019-05-22T07:12:14.891Z,68.47
2019-05-22T07:15:13.129Z,69.21
2019-05-22T07:17:41.253Z,68.96
2019-05-22T07:20:12.455Z,68.63
2019-05-22T07:22:39.413Z,68.73
2019-05-22T07:25:08.835Z,67.43
2019-05-22T07:27:39.195Z,68.30
2019-05-22T07:30:08.151Z,65.72
2019-05-22T07:32:42.478Z,67.45
2019-05-22T07:35:14.732Z,68.41
2019-05-22T07:37:45.928Z,67.65
2019-05-22T07:40:15.078Z,69.16
2019-05-22T07:42:42.521Z,69.06
2019-05-22T07:45:10.174Z,68.82
2019-05-22T07:47:37.412Z,69.66
2019-05-22T07:50:05.134Z,66.79
2019-05-22T07:52:32.413Z,67.49
2019-05-22T07:55:01.290Z,67.07
2019-05-22T07:57:29.448Z,65.99
2019-05-22T07:59:56.615Z,63.42
2019-05-22T08:02:26.140Z,63.11
2019-05-22T08:04:53.445Z,62.89
2019-05-22T08:07:26.174Z,63.24
2019-05-22T08:09:53.656Z,61.78
2019-05-22T08:12:21.001Z,62.93
2019-05-22T08:14:48.504Z,63.87
2019-05-22T08:17:16.845Z,66.54
2019-05-22T08:19:44.417Z,67.70
2019-05-22T08:22:12.577Z,69.22
2019-05-22T08:24:40.665Z,68.39
2019-05-22T08:27:07.957Z,69.57
2019-05-22T08:29:35.527Z,69.64
2019-05-22T08:32:03.524Z,69.59
2019-05-22T08:34:31.037Z,69.19
2019-05-22T08:37:01.024Z,69.24
2019-05-22T08:39:28.717Z,69.47
2019-05-22T08:41:55.958Z,68.29
2019-05-22T08:44:23.867Z,67.46
2019-05-22T08:46:52.150Z,66.13
2019-05-22T08:49:19.514Z,67.25
2019-05-22T08:51:48.091Z,65.87
2019-05-22T08:54:15.654Z,65.74
2019-05-22T08:56:46.990Z,64.42
2019-05-22T08:59:19.567Z,63.46
2019-05-22T09:01:43.587Z,63.54
2019-05-22T09:04:11.104Z,63.31
2019-05-22T09:06:38.092Z,61.65
2019-05-22T09:09:06.268Z,64.26
2019-05-22T09:11:33.366Z,64.48
2019-05-22T09:14:00.633Z,64.59
2019-05-22T09:16:27.603Z,64.06
2019-05-22T09:18:57.802Z,63.67
2019-05-22T09:21:24.803Z,62.89
2019-05-22T09:23:53.352Z,63.09
2019-05-22T09:26:22.617Z,60.58
2019-05-22T09:28:49.600Z,61.47
2019-05-22T09:31:17.751Z,63.35
2019-05-22T09:33:45.970Z,63.02
2019-05-22T09:36:14.378Z,63.58
2019-05-22T09:38:41.452Z,64.48
2019-05-22T09:41:08.705Z,65.85
2019-05-22T09:43:35.851Z,66.83
2019-05-22T09:46:04.644Z,66.79
2019-05-22T09:48:33.583Z,66.14
2019-05-22T09:51:00.683Z,65.83
2019-05-22T09:53:27.845Z,65.18
2019-05-22T09:55:55.232Z,64.07
2019-05-22T09:58:22.925Z,63.38
2019-05-22T10:00:49.978Z,63.55
2019-05-22T10:03:17.058Z,64.36
2019-05-22T10:05:47.747Z,63.84
2019-05-22T10:08:15.653Z,62.83
2019-05-22T10:10:43.015Z,62.31
2019-05-22T10:13:10.117Z,61.45
2019-05-22T10:15:38.558Z,60.75
2019-05-22T10:18:06.036Z,60.31
2019-05-22T10:20:56.574Z,59.52
2019-05-22T10:23:23.634Z,59.29
2019-05-22T10:25:51.275Z,59.74
2019-05-22T10:28:18.665Z,56.79
2019-05-22T10:30:46.849Z,58.24
2019-05-22T10:33:16.262Z,57.38
2019-05-22T10:35:43.607Z,55.92
2019-05-22T10:38:11.082Z,57.54
2019-05-22T10:40:38.319Z,55.23
2019-05-22T10:43:05.731Z,55.48
2019-05-22T10:45:33.124Z,55.22
2019-05-22T10:48:01.182Z,56.97
2019-05-22T10:50:31.101Z,56.10
2019-05-22T10:53:01.018Z,55.28
2019-05-22T10:55:29.047Z,50.20
2019-05-22T10:57:58.811Z,51.65
2019-05-22T11:00:29.417Z,49.39
2019-05-22T11:02:57.590Z,48.92
2019-05-22T11:05:26.055Z,48.14
2019-05-22T11:07:53.111Z,51.54
2019-05-22T11:10:23.646Z,53.21
2019-05-22T11:12:51.145Z,52.65
2019-05-22T11:15:18.828Z,51.49
2019-05-22T11:17:46.596Z,49.92
2019-05-22T11:20:32.763Z,50.54
2019-05-22T11:23:11.438Z,49.63
2019-05-22T11:25:48.688Z,45.01
2019-05-22T11:28:19.232Z,43.16
2019-05-22T11:30:46.205Z,46.15
2019-05-22T11:33:13.970Z,46.70
2019-05-22T11:35:40.959Z,45.05
2019-05-22T11:38:10.462Z,44.42
2019-05-22T11:40:53.645Z,48.22
2019-05-22T11:43:26.091Z,48.13
2019-05-22T11:45:53.085Z,52.19
2019-05-22T11:48:27.738Z,51.25
2019-05-22T11:50:55.957Z,49.22
2019-05-22T11:53:23.521Z,46.31
2019-05-22T11:55:52.693Z,47.63
2019-05-22T11:58:19.791Z,44.42
2019-05-22T12:00:56.206Z,40.96
2019-05-22T12:03:23.979Z,41.96
2019-05-22T12:05:55.759Z,46.43
2019-05-22T12:08:27.328Z,47.19
2019-05-22T12:10:56.701Z,47.98
2019-05-22T12:13:25.200Z,49.36
2019-05-22T12:15:58.863Z,46.93
2019-05-22T12:18:32.253Z,43.06
2019-05-22T12:21:01.609Z,40.25
2019-05-22T12:23:29.614Z,37.62
2019-05-22T12:25:56.706Z,40.65
2019-05-22T12:28:26.495Z,42.18
2019-05-22T12:30:54.589Z,46.86
2019-05-22T12:33:22.192Z,47.71
2019-05-22T12:35:49.897Z,41.73
2019-05-22T12:38:17.267Z,36.55
2019-05-22T12:40:44.347Z,41.06
2019-05-22T12:43:11.414Z,38.83
2019-05-22T12:46:05.640Z,37.20
2019-05-22T12:48:36.822Z,35.74
2019-05-22T12:51:11.935Z,32.85
2019-05-22T12:56:10.454Z,38.94
2019-05-22T12:58:40.412Z,39.50
2019-05-22T13:01:17.987Z,39.50
2019-05-22T13:03:48.723Z,40.00
2019-05-22T13:06:18.230Z,38.65
2019-05-22T13:08:45.624Z,37.07
2019-05-22T13:11:20.161Z,29.23
2019-05-22T13:13:49.463Z,29.05
2019-05-22T13:16:16.994Z,29.60
2019-05-22T13:18:53.642Z,30.75
2019-05-22T13:21:29.448Z,29.07
2019-05-22T13:23:59.638Z,28.31
2019-05-22T13:26:29.263Z,26.98
2019-05-22T13:28:57.011Z,27.72
2019-05-22T13:31:29.372Z,33.90
2019-05-22T13:33:57.680Z,36.04
2019-05-22T13:36:31.616Z,32.81
2019-05-22T13:38:59.234Z,36.32
2019-05-22T13:41:26.700Z,38.93
2019-05-22T13:43:54.078Z,38.95
2019-05-22T13:46:21.744Z,35.00
2019-05-22T13:48:49.022Z,30.74
2019-05-22T13:51:16.282Z,26.76
2019-05-22T13:53:48.798Z,36.18
2019-05-22T13:56:17.361Z,34.46
2019-05-22T13:58:44.883Z,30.21
2019-05-22T14:01:11.946Z,26.51
2019-05-22T14:03:41.217Z,23.51
2019-05-22T14:06:08.558Z,27.03
2019-05-22T14:08:35.913Z,29.84
2019-05-22T14:11:03.994Z,33.00
2019-05-22T14:13:31.283Z,32.73
2019-05-22T14:16:01.398Z,29.56
2019-05-22T14:18:29.349Z,26.11
2019-05-22T14:20:56.524Z,25.83
2019-05-22T14:23:23.716Z,26.75
2019-05-22T14:25:51.611Z,26.26
2019-05-22T14:28:20.758Z,29.64
2019-05-22T14:30:48.531Z,28.65
2019-05-22T14:33:16.079Z,31.56
2019-05-22T14:35:48.973Z,26.03
2019-05-22T14:38:15.091Z,24.86
2019-05-22T14:40:42.811Z,22.49
2019-05-22T14:43:10.596Z,22.01
2019-05-22T14:45:38.287Z,28.96
2019-05-22T14:48:05.536Z,31.68
2019-05-22T14:50:33.357Z,34.90
2019-05-22T14:53:00.330Z,36.18
2019-05-22T14:55:29.025Z,32.78
2019-05-22T14:57:56.876Z,34.39
2019-05-22T15:00:27.251Z,39.48
2019-05-22T15:02:58.525Z,38.48
2019-05-22T15:05:24.265Z,30.53
2019-05-22T15:07:57.675Z,29.15
2019-05-22T15:10:26.165Z,32.18
2019-05-22T15:13:08.334Z,33.25
2019-05-22T15:15:40.517Z,33.04
2019-05-22T15:18:07.175Z,36.09
2019-05-22T15:21:01.581Z,32.52
2019-05-22T15:23:30.421Z,33.18
2019-05-22T15:26:01.589Z,32.90
2019-05-22T15:28:29.370Z,38.16
2019-05-22T15:30:56.538Z,38.17
2019-05-22T15:33:29.858Z,35.44
2019-05-22T15:35:57.109Z,30.97
2019-05-22T15:38:26.181Z,31.59
2019-05-22T15:40:55.058Z,29.75
2019-05-22T15:43:24.079Z,28.20
2019-05-22T15:45:54.761Z,26.95
2019-05-22T15:48:29.237Z,31.82
2019-05-22T15:50:59.406Z,29.30
2019-05-22T15:53:34.170Z,27.64
2019-05-22T15:56:03.841Z,29.76
2019-05-22T15:58:33.318Z,32.25
2019-05-22T16:01:01.341Z,32.75
2019-05-22T16:03:29.475Z,32.95
2019-05-22T16:05:58.316Z,36.34
2019-05-22T16:08:31.216Z,35.46
2019-05-22T16:11:19.374Z,31.62
2019-05-22T16:13:47.901Z,31.87
2019-05-22T16:16:18.186Z,34.65
2019-05-22T16:21:13.855Z,29.71
2019-05-22T16:23:44.544Z,35.68
2019-05-22T16:26:13.314Z,33.04
2019-05-22T16:28:43.844Z,30.90
2019-05-22T16:31:16.406Z,30.55
2019-05-22T16:33:52.787Z,30.27
2019-05-22T16:36:21.199Z,33.51
2019-05-22T16:38:50.275Z,34.32
2019-05-22T16:41:18.645Z,32.96
2019-05-22T16:43:49.619Z,32.57
2019-05-22T16:46:18.347Z,32.68
2019-05-22T16:48:47.407Z,36.01
2019-05-22T16:51:19.714Z,37.15
2019-05-22T16:53:56.176Z,34.82
2019-05-22T16:56:24.823Z,34.05
2019-05-22T16:58:52.891Z,36.03
2019-05-22T17:01:21.436Z,35.09
2019-05-22T17:03:53.197Z,34.11
2019-05-22T17:06:22.899Z,34.72
2019-05-22T17:08:50.429Z,35.41
2019-05-22T17:11:18.197Z,37.30
2019-05-22T17:13:46.618Z,36.18
2019-05-22T17:16:15.991Z,35.83
2019-05-22T17:18:48.116Z,33.84
2019-05-22T17:21:16.286Z,36.08
2019-05-22T17:23:44.172Z,36.42
2019-05-22T17:26:12.379Z,36.34
2019-05-22T17:28:40.279Z,36.91
2019-05-22T17:31:08.047Z,36.24
2019-05-22T17:33:35.307Z,34.54
2019-05-22T17:36:05.541Z,35.01
2019-05-22T17:38:32.787Z,36.47
2019-05-22T17:41:00.685Z,37.15
2019-05-22T17:43:30.676Z,37.31
2019-05-22T17:45:57.895Z,37.62
2019-05-22T17:48:28.373Z,35.82
2019-05-22T17:50:56.040Z,36.51
2019-05-22T17:53:24.290Z,34.07
2019-05-22T17:55:54.488Z,33.97
2019-05-22T17:58:30.105Z,33.76
2019-05-22T18:00:58.227Z,36.19
2019-05-22T18:03:25.347Z,36.04
2019-05-22T18:05:55.762Z,35.36
2019-05-22T18:08:33.925Z,34.71
2019-05-22T18:11:05.893Z,37.32
2019-05-22T18:13:38.147Z,37.09
2019-05-22T18:16:05.602Z,37.10
2019-05-22T18:18:34.955Z,39.16
2019-05-22T18:21:09.974Z,40.53
2019-05-22T18:23:39.364Z,41.97
2019-05-22T18:26:06.965Z,42.48
2019-05-22T18:28:34.403Z,42.98
2019-05-22T18:31:06.989Z,41.39
2019-05-22T18:33:40.090Z,41.20
2019-05-22T18:36:28.659Z,41.00
2019-05-22T18:39:05.283Z,40.84
2019-05-22T18:41:32.846Z,40.81
2019-05-22T18:44:00.561Z,41.93
2019-05-22T18:46:28.297Z,42.15
2019-05-22T18:48:56.076Z,43.09
2019-05-22T18:51:24.121Z,43.61
2019-05-22T18:53:53.467Z,44.67
2019-05-22T18:56:26.083Z,46.49
2019-05-22T18:58:55.610Z,47.41
2019-05-22T19:01:22.828Z,48.33
2019-05-22T19:03:50.183Z,48.18
2019-05-22T19:06:29.680Z,48.61
2019-05-22T19:08:49.805Z,49.55
2019-05-22T19:11:17.252Z,49.39
2019-05-22T19:13:54.884Z,49.48
2019-05-22T19:16:31.984Z,49.49
2019-05-22T19:19:01.851Z,49.79
2019-05-22T19:21:30.469Z,50.10
2019-05-22T19:24:02.939Z,50.92
2019-05-22T19:26:30.164Z,50.69
2019-05-22T19:28:57.692Z,50.20
2019-05-22T19:31:28.064Z,50.28
2019-05-22T19:33:55.385Z,51.58
2019-05-22T19:36:29.766Z,52.11
2019-05-22T19:38:57.209Z,52.84
2019-05-22T19:41:30.364Z,52.91
2019-05-22T19:44:06.726Z,52.95
2019-05-22T19:46:42.450Z,53.61
2019-05-22T19:49:12.867Z,54.32
2019-05-22T19:51:44.545Z,55.28
2019-05-22T19:54:12.126Z,55.98
2019-05-22T19:56:49.349Z,57.54
2019-05-22T19:59:17.357Z,58.24
2019-05-22T20:01:55.743Z,58.61
2019-05-22T20:04:23.686Z,58.74
2019-05-22T20:06:50.986Z,58.56
2019-05-22T20:09:20.737Z,59.68
2019-05-22T20:11:48.501Z,60.18
2019-05-22T20:14:18.737Z,60.60
2019-05-22T20:16:46.228Z,61.51
2019-05-22T20:19:20.370Z,61.49
2019-05-22T20:21:50.794Z,62.11
2019-05-22T20:24:19.769Z,62.52
2019-05-22T20:26:49.310Z,62.75
2019-05-22T20:29:18.542Z,63.37
2019-05-22T20:31:48.534Z,64.01
2019-05-22T20:34:27.007Z,64.31
2019-05-22T20:36:55.902Z,64.81
2019-05-22T20:39:25.037Z,64.49
2019-05-22T20:41:59.036Z,64.88
2019-05-22T20:44:38.063Z,65.03
2019-05-22T20:47:10.841Z,66.48
2019-05-22T20:49:43.507Z,66.03
2019-05-22T20:52:13.809Z,67.71
2019-05-22T20:54:47.985Z,68.08
2019-05-22T20:57:20.254Z,69.51
2019-05-22T20:59:50.660Z,71.05
2019-05-22T21:02:23.390Z,71.11
2019-05-22T21:04:56.056Z,71.22
2019-05-22T21:07:33.350Z,70.56
2019-05-22T21:10:10.143Z,70.38
2019-05-22T21:12:48.423Z,71.03
2019-05-22T21:15:15.811Z,71.54
2019-05-22T21:17:43.184Z,72.86
2019-05-22T21:20:15.173Z,72.83
2019-05-22T21:22:44.032Z,73.34
2019-05-22T21:25:11.358Z,73.15
2019-05-22T21:27:38.759Z,72.46
2019-05-22T21:30:09.507Z,73.02
2019-05-22T21:32:37.786Z,72.89
2019-05-22T21:35:13.696Z,72.56
2019-05-22T21:37:41.116Z,72.25
2019-05-22T21:40:09.024Z,72.33
2019-05-22T21:42:38.756Z,72.44
2019-05-22T21:45:08.823Z,72.89
2019-05-22T21:47:45.689Z,73.05
2019-05-22T21:50:14.051Z,72.86
2019-05-22T21:52:45.981Z,72.73
2019-05-22T21:55:15.333Z,72.74
2019-05-22T21:57:46.201Z,72.41
2019-05-22T22:00:21.535Z,72.20
2019-05-22T22:02:51.836Z,72.50
2019-05-22T22:05:19.263Z,72.54
2019-05-22T22:07:46.764Z,72.64
2019-05-22T22:10:15.304Z,73.09
2019-05-22T22:12:43.246Z,73.27
2019-05-22T22:15:12.604Z,73.21
2019-05-22T22:17:41.483Z,73.06
2019-05-22T22:20:09.671Z,73.45
2019-05-22T22:22:37.688Z,73.49
2019-05-22T22:25:09.593Z,73.55
2019-05-22T22:27:37.918Z,73.63
2019-05-22T22:30:10.619Z,74.08
2019-05-22T22:32:39.040Z,74.94
2019-05-22T22:35:11.182Z,75.28
2019-05-22T22:37:38.747Z,75.47
2019-05-22T22:40:08.064Z,75.25
2019-05-22T22:42:37.353Z,75.39
2019-05-22T22:45:10.707Z,75.74
2019-05-22T22:47:41.983Z,75.92
2019-05-22T22:50:12.366Z,76.37
2019-05-22T22:52:42.351Z,76.25
2019-05-22T22:55:12.502Z,76.03
2019-05-22T22:57:40.272Z,75.71
2019-05-22T23:00:11.415Z,75.24
2019-05-22T23:02:40.935Z,75.28
2019-05-22T23:05:10.607Z,75.05
2019-05-22T23:07:41.001Z,75.31
2019-05-22T23:10:10.400Z,75.06
2019-05-22T23:12:38.953Z,75.72
2019-05-22T23:15:10.125Z,76.04
2019-05-22T23:17:40.093Z,75.73
2019-05-22T23:20:13.103Z,75.51
2019-05-22T23:22:39.749Z,75.56
2019-05-22T23:25:09.438Z,75.99
2019-05-22T23:27:39.095Z,75.70
2019-05-22T23:30:14.110Z,75.48
2019-05-22T23:32:46.289Z,75.59
2019-05-22T23:35:28.616Z,75.85
2019-05-22T23:38:21.192Z,75.83
2019-05-22T23:40:59.452Z,75.82
2019-05-22T23:43:33.022Z,75.72
2019-05-22T23:46:02.067Z,75.72
2019-05-22T23:48:30.240Z,75.87
2019-05-22T23:50:58.697Z,75.80
2019-05-22T23:53:27.536Z,75.88
2019-05-22T23:55:58.135Z,75.82
2019-05-22T23:58:27.706Z,75.89
